Time;durP1;ratioP1;P1;durP2;ratioP2;P2;SDS_P1;SDS_P2;PMS_P1;PMS_P2;Temp;Humidity;BMP_temperature;BMP_pressure;BME280_temperature;BME280_humidity;BME280_pressure;Samples;Min_cycle;Max_cycle;Signal;HPM_P1;HPM_P2
2021/01/06 00:00:17;;;;;;;10.83;8.07;;;3.80;99.90;;;;;;5035117;28;20171;-80
2021/01/06 00:02:43;;;;;;;13.43;9.57;;;3.80;99.90;;;;;;5033493;28;20179;-77
2021/01/06 00:05:10;;;;;;;13.37;9.07;;;3.80;99.90;;;;;;5034651;28;20304;-79
2021/01/06 00:07:40;;;;;;;13.30;8.97;;;3.80;99.90;;;;;;5017127;28;20253;-76
2021/01/06 00:10:07;;;;;;;13.63;8.17;;;3.80;99.90;;;;;;5017084;28;20181;-83
2021/01/06 00:12:32;;;;;;;11.80;8.40;;;3.80;99.90;;;;;;5033289;28;20187;-80
2021/01/06 00:14:58;;;;;;;12.03;8.67;;;3.80;99.90;;;;;;5034553;28;20550;-77
2021/01/06 00:17:23;;;;;;;12.00;8.73;;;3.80;99.90;;;;;;5016964;28;20582;-79
2021/01/06 00:19:49;;;;;;;12.53;8.67;;;3.80;99.90;;;;;;5016999;28;20638;-79
2021/01/06 00:22:14;;;;;;;12.30;8.80;;;3.80;99.90;;;;;;5016680;28;20557;-81
2021/01/06 00:24:41;;;;;;;13.63;10.17;;;3.80;99.90;;;;;;5015656;28;20590;-76
2021/01/06 00:27:06;;;;;;;15.37;9.80;;;3.80;99.90;;;;;;5016607;28;20616;-83
2021/01/06 00:29:32;;;;;;;14.03;10.27;;;3.80;99.90;;;;;;5032942;28;20179;-77
2021/01/06 00:31:57;;;;;;;13.80;10.10;;;3.80;99.90;;;;;;5032931;28;20258;-76
2021/01/06 00:34:23;;;;;;;14.27;10.73;;;3.90;99.90;;;;;;5016281;28;20546;-77
2021/01/06 00:36:48;;;;;;;12.90;10.53;;;3.80;99.90;;;;;;5016174;28;20221;-76
2021/01/06 00:39:14;;;;;;;14.57;10.50;;;3.80;99.90;;;;;;5016228;28;20214;-78
2021/01/06 00:41:40;;;;;;;14.37;10.27;;;3.80;99.90;;;;;;5016323;28;20183;-78
2021/01/06 00:44:05;;;;;;;15.83;10.87;;;3.80;99.90;;;;;;5016300;28;20175;-80
2021/01/06 00:46:33;;;;;;;14.40;10.77;;;3.80;99.90;;;;;;5016132;28;20674;-78
2021/01/06 00:48:59;;;;;;;16.27;10.43;;;3.90;99.90;;;;;;5032902;28;20178;-80
2021/01/06 00:51:24;;;;;;;14.73;10.63;;;3.70;99.90;;;;;;5016336;28;20321;-77
2021/01/06 00:53:50;;;;;;;16.47;10.97;;;3.80;99.90;;;;;;5015889;28;20193;-77
2021/01/06 00:56:16;;;;;;;15.40;10.67;;;3.80;99.90;;;;;;5016019;28;20198;-79
2021/01/06 00:58:41;;;;;;;15.20;10.87;;;3.80;99.90;;;;;;5015817;28;20269;-82
2021/01/06 01:01:07;;;;;;;17.80;11.83;;;3.70;99.90;;;;;;5015974;28;20241;-78
2021/01/06 01:03:32;;;;;;;15.67;10.93;;;3.70;99.90;;;;;;5032368;28;20269;-78
2021/01/06 01:05:58;;;;;;;17.70;12.10;;;3.70;99.90;;;;;;5032027;28;20202;-79
2021/01/06 01:08:23;;;;;;;15.40;11.70;;;3.70;99.90;;;;;;5015827;28;20181;-80
2021/01/06 01:10:51;;;;;;;14.73;11.03;;;3.70;99.90;;;;;;5015897;28;20561;-78
2021/01/06 01:13:19;;;;;;;15.33;11.37;;;3.70;99.90;;;;;;5032242;28;20235;-79
2021/01/06 01:15:45;;;;;;;15.97;11.60;;;3.80;99.90;;;;;;5015675;28;20185;-79
2021/01/06 01:18:13;;;;;;;16.60;11.97;;;3.70;99.90;;;;;;5032043;28;20199;-79
2021/01/06 01:20:47;;;;;;;17.57;12.67;;;3.70;99.90;;;;;;5015919;28;20202;-79
2021/01/06 01:23:13;;;;;;;17.13;11.50;;;3.70;99.90;;;;;;5015674;28;20277;-79
2021/01/06 01:25:39;;;;;;;15.80;11.20;;;3.70;99.90;;;;;;5015468;28;20182;-78
2021/01/06 01:28:04;;;;;;;19.80;11.97;;;3.70;99.90;;;;;;5015427;28;20183;-80
2021/01/06 01:30:30;;;;;;;16.10;11.60;;;3.70;99.90;;;;;;5016004;28;20669;-82
2021/01/06 01:32:56;;;;;;;18.40;11.90;;;3.60;99.90;;;;;;5015355;28;20186;-78
2021/01/06 01:35:26;;;;;;;16.97;12.53;;;3.60;99.90;;;;;;5015579;28;20190;-78
2021/01/06 01:37:52;;;;;;;18.13;12.13;;;3.70;99.90;;;;;;5015483;28;20203;-78
2021/01/06 01:40:21;;;;;;;18.47;12.80;;;3.60;99.90;;;;;;5015279;28;20185;-79
2021/01/06 01:42:51;;;;;;;19.37;13.10;;;3.60;99.90;;;;;;5031727;28;20195;-81
2021/01/06 01:45:16;;;;;;;19.83;13.20;;;3.60;99.90;;;;;;5015114;28;20261;-81
2021/01/06 01:47:47;;;;;;;19.27;13.97;;;3.60;99.90;;;;;;5032540;28;20294;-78
2021/01/06 01:50:13;;;;;;;20.97;14.47;;;3.60;99.90;;;;;;5015094;28;20186;-79
2021/01/06 01:52:42;;;;;;;22.47;14.70;;;3.50;99.90;;;;;;5015148;28;20167;-78
2021/01/06 01:55:09;;;;;;;23.60;14.73;;;3.50;99.90;;;;;;5015299;28;20210;-77
2021/01/06 01:57:37;;;;;;;18.50;13.80;;;3.50;99.90;;;;;;5031558;28;20264;-77
2021/01/06 02:00:14;;;;;;;20.30;12.70;;;3.50;99.90;;;;;;5015142;28;20203;-79
2021/01/06 02:02:54;;;;;;;16.53;13.17;;;3.50;99.90;;;;;;5015048;28;20178;-78
2021/01/06 02:05:50;;;;;;;19.00;13.63;;;3.50;99.90;;;;;;5031402;28;20200;-77
2021/01/06 02:08:24;;;;;;;15.93;11.90;;;3.50;99.90;;;;;;5032113;28;20198;-77
2021/01/06 02:10:58;;;;;;;18.33;12.83;;;3.50;99.90;;;;;;5015486;28;20197;-78
2021/01/06 02:13:54;;;;;;;17.90;12.70;;;3.50;99.90;;;;;;5015524;28;20252;-79
2021/01/06 02:16:53;;;;;;;14.77;10.90;;;3.50;99.90;;;;;;5026239;28;20249;-78
2021/01/06 02:19:23;;;;;;;14.47;10.53;;;3.60;99.90;;;;;;5031123;28;20282;-78
2021/01/06 02:21:49;;;;;;;17.23;11.07;;;3.50;99.90;;;;;;5031478;28;20155;-78
2021/01/06 02:24:14;;;;;;;16.67;11.50;;;3.50;99.90;;;;;;5014549;28;20189;-80
2021/01/06 02:26:40;;;;;;;15.90;11.03;;;3.50;99.90;;;;;;5014895;28;20201;-77
2021/01/06 02:29:06;;;;;;;14.00;10.53;;;3.50;99.90;;;;;;5014522;28;20186;-79
2021/01/06 02:31:31;;;;;;;12.37;9.60;;;3.50;99.90;;;;;;5014700;28;20216;-77
2021/01/06 02:33:57;;;;;;;14.03;10.37;;;3.50;99.90;;;;;;5030978;28;20224;-77
2021/01/06 02:36:22;;;;;;;14.80;10.80;;;3.50;99.90;;;;;;5014253;28;20213;-77
2021/01/06 02:38:48;;;;;;;13.47;9.50;;;3.50;99.90;;;;;;5014439;28;20344;-77
2021/01/06 02:41:14;;;;;;;12.70;9.70;;;3.40;99.90;;;;;;5030905;28;20179;-77
2021/01/06 02:43:39;;;;;;;14.03;9.63;;;3.40;99.90;;;;;;5014361;28;20186;-77
2021/01/06 02:46:05;;;;;;;13.47;9.83;;;3.40;99.90;;;;;;5014280;28;20226;-76
2021/01/06 02:48:30;;;;;;;11.80;9.43;;;3.50;99.90;;;;;;5017653;28;20577;-79
2021/01/06 02:51:00;;;;;;;10.63;8.63;;;3.50;99.90;;;;;;5018390;28;20187;-81
2021/01/06 02:53:31;;;;;;;13.03;9.33;;;3.50;99.90;;;;;;5018827;28;20183;-80
2021/01/06 02:55:56;;;;;;;11.33;9.27;;;3.50;99.90;;;;;;5018606;28;20203;-77
2021/01/06 02:58:23;;;;;;;10.47;8.53;;;3.50;99.90;;;;;;5034489;28;20425;-80
2021/01/06 03:00:50;;;;;;;13.40;9.57;;;3.50;99.90;;;;;;5018357;28;20257;-80
2021/01/06 03:03:15;;;;;;;11.80;9.40;;;3.40;99.90;;;;;;5018270;28;20655;-79
2021/01/06 03:05:44;;;;;;;14.67;9.80;;;3.40;99.90;;;;;;5018077;28;20209;-79
2021/01/06 03:08:11;;;;;;;12.03;9.87;;;3.40;99.90;;;;;;5018356;28;20740;-78
2021/01/06 03:10:37;;;;;;;12.30;9.70;;;3.40;99.90;;;;;;5018179;28;20252;-78
2021/01/06 03:13:02;;;;;;;12.83;9.90;;;3.40;99.90;;;;;;5034609;28;20661;-82
2021/01/06 03:15:28;;;;;;;12.03;10.07;;;3.40;99.90;;;;;;5017804;28;20175;-80
2021/01/06 03:17:54;;;;;;;14.83;10.30;;;3.30;99.90;;;;;;5017803;28;20249;-78
2021/01/06 03:20:26;;;;;;;13.27;10.10;;;3.50;99.90;;;;;;5017986;28;20194;-78
2021/01/06 03:22:58;;;;;;;12.00;10.00;;;3.50;99.90;;;;;;5018653;28;20159;-78
2021/01/06 03:25:24;;;;;;;13.03;10.20;;;3.50;99.90;;;;;;5018203;28;20199;-79
2021/01/06 03:27:49;;;;;;;13.57;10.07;;;3.50;99.90;;;;;;5017422;28;20226;-78
2021/01/06 03:30:19;;;;;;;12.53;9.70;;;3.40;99.90;;;;;;5017756;28;20175;-79
2021/01/06 03:32:57;;;;;;;16.83;10.40;;;3.40;99.90;;;;;;5018013;28;20179;-77
2021/01/06 03:35:25;;;;;;;14.17;10.17;;;3.40;99.90;;;;;;5035305;28;20185;-77
2021/01/06 03:37:54;;;;;;;14.87;9.67;;;3.40;99.90;;;;;;5033879;28;20254;-78
2021/01/06 03:40:26;;;;;;;17.80;10.57;;;3.50;99.90;;;;;;5017676;28;20209;-80
2021/01/06 03:42:53;;;;;;;13.53;10.00;;;3.50;99.90;;;;;;5033788;28;20254;-78
2021/01/06 03:45:19;;;;;;;15.97;10.43;;;3.40;99.90;;;;;;5017250;28;20178;-78
2021/01/06 03:47:44;;;;;;;15.03;10.77;;;3.40;99.90;;;;;;5017096;28;20642;-79
2021/01/06 03:50:16;;;;;;;15.60;10.33;;;3.40;99.90;;;;;;5017107;28;20211;-78
2021/01/06 03:52:51;;;;;;;15.97;9.63;;;3.40;99.90;;;;;;5033665;28;20674;-83
2021/01/06 03:55:22;;;;;;;16.10;10.40;;;3.40;99.90;;;;;;5018564;28;20159;-77
2021/01/06 03:57:50;;;;;;;15.03;10.37;;;3.40;99.90;;;;;;5016998;28;20202;-78
2021/01/06 04:00:51;;;;;;;13.30;10.27;;;3.40;99.90;;;;;;5017165;28;20796;-83
2021/01/06 04:03:31;;;;;;;15.40;11.50;;;3.30;99.90;;;;;;5029509;28;20668;-78
2021/01/06 04:05:57;;;;;;;12.90;10.43;;;3.30;99.90;;;;;;5033456;28;20205;-78
2021/01/06 04:09:04;;;;;;;15.37;10.67;;;3.30;99.90;;;;;;5016955;28;20182;-78
2021/01/06 04:11:35;;;;;;;14.53;11.33;;;3.30;99.90;;;;;;5004474;28;20293;-82
2021/01/06 04:14:00;;;;;;;14.63;11.27;;;3.20;99.90;;;;;;5032247;28;20174;-78
2021/01/06 04:16:26;;;;;;;17.10;11.60;;;3.20;99.90;;;;;;5006094;28;20279;-81
2021/01/06 04:18:52;;;;;;;13.97;10.13;;;3.30;99.90;;;;;;5033246;28;20234;-78
2021/01/06 04:21:18;;;;;;;17.63;11.93;;;3.30;99.90;;;;;;5016671;28;20781;-78
2021/01/06 04:23:43;;;;;;;16.80;11.00;;;3.30;99.90;;;;;;5016552;28;20186;-79
2021/01/06 04:26:18;;;;;;;13.93;10.73;;;3.20;99.90;;;;;;5016491;28;20228;-77
2021/01/06 04:28:44;;;;;;;13.10;10.33;;;3.20;99.90;;;;;;5016427;28;20645;-78
2021/01/06 04:31:16;;;;;;;13.60;9.97;;;3.20;99.90;;;;;;5032978;28;20190;-78
2021/01/06 04:33:44;;;;;;;15.13;10.47;;;3.20;99.90;;;;;;5017534;28;20186;-78
2021/01/06 04:36:30;;;;;;;13.30;10.20;;;3.30;99.90;;;;;;5034296;28;20195;-78
2021/01/06 04:38:58;;;;;;;14.10;10.27;;;3.30;99.90;;;;;;5029702;28;20210;-78
2021/01/06 04:41:27;;;;;;;11.90;9.00;;;3.30;99.90;;;;;;5032731;28;20171;-78
2021/01/06 04:43:59;;;;;;;12.73;9.77;;;3.30;99.90;;;;;;5048965;28;20182;-80
2021/01/06 04:46:30;;;;;;;12.13;9.07;;;3.30;99.90;;;;;;5049131;28;20206;-82
2021/01/06 04:49:10;;;;;;;10.90;8.67;;;3.30;99.90;;;;;;5033844;28;20189;-79
2021/01/06 04:51:44;;;;;;;13.00;9.33;;;3.30;99.90;;;;;;5047940;28;20169;-78
2021/01/06 04:54:24;;;;;;;12.30;8.73;;;3.30;99.90;;;;;;5032594;28;20626;-76
2021/01/06 04:57:04;;;;;;;11.20;8.40;;;3.30;99.90;;;;;;5033533;28;20205;-78
2021/01/06 04:59:53;;;;;;;10.67;8.60;;;3.20;99.90;;;;;;5032383;28;20708;-77
2021/01/06 05:02:37;;;;;;;12.60;9.30;;;3.20;99.90;;;;;;5047165;28;20170;-77
2021/01/06 05:05:24;;;;;;;13.20;9.73;;;3.10;99.90;;;;;;5015903;28;20175;-78
2021/01/06 05:08:02;;;;;;;12.87;9.77;;;3.10;99.90;;;;;;5033434;28;20274;-77
2021/01/06 05:10:29;;;;;;;13.50;9.90;;;3.20;99.90;;;;;;5048023;28;20182;-80
2021/01/06 05:13:26;;;;;;;11.80;9.17;;;3.10;99.90;;;;;;5048846;28;20175;-78
2021/01/06 05:16:04;;;;;;;13.43;10.07;;;3.10;99.90;;;;;;5043873;28;20246;-83
2021/01/06 05:18:29;;;;;;;12.60;9.53;;;3.20;99.90;;;;;;5031960;28;20681;-79
2021/01/06 05:20:55;;;;;;;14.00;9.93;;;3.10;99.90;;;;;;5015432;28;20179;-77
2021/01/06 05:23:23;;;;;;;14.23;10.57;;;3.10;99.90;;;;;;5032115;28;20178;-79
2021/01/06 05:25:48;;;;;;;14.00;10.60;;;3.10;99.90;;;;;;5031893;28;20631;-79
2021/01/06 05:28:19;;;;;;;13.53;9.73;;;3.10;99.90;;;;;;5015333;28;20187;-78
2021/01/06 05:30:45;;;;;;;13.30;9.57;;;3.10;99.90;;;;;;5015313;28;20191;-76
2021/01/06 05:33:12;;;;;;;13.37;10.70;;;3.10;99.90;;;;;;5015391;28;20182;-79
2021/01/06 05:35:43;;;;;;;14.27;10.03;;;3.00;99.90;;;;;;5032059;28;20181;-79
2021/01/06 05:38:08;;;;;;;14.23;9.47;;;3.10;99.90;;;;;;5032192;28;20170;-77
2021/01/06 05:40:35;;;;;;;11.13;8.50;;;3.00;99.90;;;;;;5031589;28;20178;-80
2021/01/06 05:43:04;;;;;;;11.67;9.50;;;3.00;99.90;;;;;;5015222;28;20274;-78
2021/01/06 05:45:47;;;;;;;15.87;10.87;;;3.10;99.90;;;;;;5031620;28;20233;-78
2021/01/06 05:48:21;;;;;;;12.03;9.40;;;3.00;99.90;;;;;;5015164;28;20555;-78
2021/01/06 05:51:05;;;;;;;13.40;9.07;;;3.00;99.90;;;;;;5015010;28;20187;-79
2021/01/06 05:53:38;;;;;;;13.87;9.47;;;3.10;99.90;;;;;;5031494;28;20177;-77
2021/01/06 05:56:25;;;;;;;12.30;8.67;;;3.10;99.90;;;;;;5031018;28;20210;-77
2021/01/06 05:59:12;;;;;;;11.33;8.60;;;3.10;99.90;;;;;;5032559;28;20665;-81
2021/01/06 06:01:53;;;;;;;11.57;8.60;;;3.10;99.90;;;;;;5014800;28;20245;-78
2021/01/06 06:04:37;;;;;;;11.70;8.33;;;3.00;99.90;;;;;;5047507;28;20631;-77
2021/01/06 06:07:13;;;;;;;11.33;8.37;;;3.00;99.90;;;;;;5032344;28;20293;-78
2021/01/06 06:09:38;;;;;;;13.03;8.63;;;3.00;99.90;;;;;;5031158;28;20178;-80
2021/01/06 06:12:26;;;;;;;11.80;8.50;;;3.00;99.90;;;;;;5032419;28;20170;-76
2021/01/06 06:15:33;;;;;;;11.17;8.33;;;3.10;99.90;;;;;;5045253;28;20179;-77
2021/01/06 06:18:19;;;;;;;11.67;8.23;;;3.00;99.90;;;;;;5031491;28;20202;-79
2021/01/06 06:21:26;;;;;;;10.87;8.03;;;3.00;99.90;;;;;;5047620;28;20686;-79
2021/01/06 06:24:18;;;;;;;13.43;8.50;;;2.90;99.90;;;;;;5020845;28;20643;-77
2021/01/06 06:27:02;;;;;;;11.20;7.90;;;2.90;99.90;;;;;;5031147;28;20202;-78
2021/01/06 06:29:34;;;;;;;11.03;8.20;;;3.00;99.90;;;;;;5030775;28;20182;-79
2021/01/06 06:32:00;;;;;;;11.90;8.43;;;3.00;99.90;;;;;;5030865;28;20183;-78
2021/01/06 06:34:27;;;;;;;14.50;10.27;;;2.90;99.90;;;;;;5030997;28;20175;-79
2021/01/06 06:37:01;;;;;;;17.57;10.43;;;2.90;99.90;;;;;;5030959;28;20207;-78
2021/01/06 06:39:32;;;;;;;14.07;9.60;;;2.90;99.90;;;;;;5030822;28;20282;-79
2021/01/06 06:42:16;;;;;;;14.40;10.27;;;2.90;99.90;;;;;;5014375;28;20199;-80
2021/01/06 06:44:54;;;;;;;17.77;11.23;;;2.90;99.90;;;;;;5030886;28;20166;-78
2021/01/06 06:47:49;;;;;;;14.70;9.47;;;2.90;99.90;;;;;;5030628;28;20720;-78
2021/01/06 06:50:52;;;;;;;16.60;9.77;;;2.90;99.90;;;;;;5045311;28;20170;-79
2021/01/06 06:53:30;;;;;;;16.23;10.80;;;2.90;99.90;;;;;;5048320;28;20185;-82
2021/01/06 06:56:14;;;;;;;15.67;10.50;;;2.90;99.90;;;;;;5047249;28;20209;-76
2021/01/06 06:59:01;;;;;;;16.47;10.50;;;2.90;99.90;;;;;;5030881;28;20567;-79
2021/01/06 07:01:33;;;;;;;13.93;10.37;;;2.90;99.90;;;;;;5030871;28;20171;-76
2021/01/06 07:04:04;;;;;;;14.90;10.40;;;2.90;99.90;;;;;;5030689;28;20160;-77
2021/01/06 07:06:29;;;;;;;15.63;9.93;;;2.90;99.90;;;;;;5030858;28;20561;-76
2021/01/06 07:08:57;;;;;;;15.33;10.57;;;2.90;99.90;;;;;;5030674;28;20175;-77
2021/01/06 07:11:25;;;;;;;14.10;10.43;;;2.80;99.90;;;;;;5030667;28;20179;-79
2021/01/06 07:13:56;;;;;;;14.33;10.93;;;2.80;99.90;;;;;;5030692;28;20172;-77
2021/01/06 07:16:28;;;;;;;14.63;11.10;;;2.80;99.90;;;;;;5030244;28;20214;-77
2021/01/06 07:18:53;;;;;;;18.17;11.30;;;2.90;99.90;;;;;;5014026;28;20260;-77
2021/01/06 07:21:22;;;;;;;15.77;11.47;;;2.90;99.90;;;;;;5030607;28;20230;-77
2021/01/06 07:24:06;;;;;;;14.70;11.43;;;2.90;99.90;;;;;;5030530;28;20642;-77
2021/01/06 07:26:44;;;;;;;15.97;11.37;;;2.80;99.90;;;;;;5046283;28;20265;-77
2021/01/06 07:29:11;;;;;;;16.87;11.13;;;2.80;99.90;;;;;;5030369;28;20256;-76
2021/01/06 07:31:53;;;;;;;17.00;11.47;;;2.80;99.90;;;;;;5030925;28;20203;-76
2021/01/06 07:34:24;;;;;;;17.63;12.47;;;2.70;99.90;;;;;;5033221;28;20242;-77
2021/01/06 07:36:54;;;;;;;14.50;11.23;;;2.70;99.90;;;;;;5033434;28;20214;-76
2021/01/06 07:39:22;;;;;;;16.57;11.00;;;2.70;99.90;;;;;;5017485;28;20234;-77
2021/01/06 07:41:47;;;;;;;16.10;11.77;;;2.80;99.90;;;;;;5033905;28;20587;-77
2021/01/06 07:44:37;;;;;;;17.70;11.90;;;2.70;99.90;;;;;;5033886;28;20200;-77
2021/01/06 07:47:18;;;;;;;16.10;11.90;;;2.70;99.90;;;;;;5033534;28;20663;-77
2021/01/06 07:49:45;;;;;;;14.70;11.43;;;2.70;99.90;;;;;;5033735;28;20225;-75
2021/01/06 07:52:48;;;;;;;16.70;11.63;;;2.70;99.90;;;;;;5034960;28;20179;-77
2021/01/06 07:55:25;;;;;;;17.00;11.13;;;2.70;99.90;;;;;;5036934;28;20522;-79
2021/01/06 07:58:01;;;;;;;15.93;10.60;;;2.80;99.90;;;;;;5033958;28;20726;-80
2021/01/06 08:00:39;;;;;;;14.33;10.80;;;2.70;99.90;;;;;;5017564;28;20209;-79
2021/01/06 08:03:34;;;;;;;14.80;11.00;;;2.70;99.90;;;;;;5004134;28;20156;-80
2021/01/06 08:06:00;;;;;;;18.37;12.40;;;2.70;99.90;;;;;;5004284;28;20195;-79
2021/01/06 08:08:27;;;;;;;14.17;10.83;;;2.70;99.90;;;;;;5003766;28;20176;-78
2021/01/06 08:11:04;;;;;;;18.57;11.10;;;2.70;99.90;;;;;;5002836;28;20182;-78
2021/01/06 08:13:31;;;;;;;19.77;12.27;;;2.70;99.90;;;;;;4985538;28;20174;-79
2021/01/06 08:16:18;;;;;;;17.00;12.33;;;2.70;99.90;;;;;;4985175;28;20302;-80
2021/01/06 08:19:02;;;;;;;22.30;13.60;;;2.70;99.90;;;;;;5019690;28;20199;-78
2021/01/06 08:21:50;;;;;;;19.53;13.43;;;2.70;99.90;;;;;;5028606;28;20179;-78
2021/01/06 08:24:22;;;;;;;19.73;14.30;;;2.70;99.90;;;;;;5022583;28;20182;-78
2021/01/06 08:26:56;;;;;;;21.30;14.77;;;2.70;99.90;;;;;;5037621;28;20214;-80
2021/01/06 08:29:29;;;;;;;19.80;14.33;;;2.70;99.90;;;;;;5021691;28;20206;-80
2021/01/06 08:32:10;;;;;;;19.10;13.97;;;2.70;99.90;;;;;;5001646;28;20163;-75
2021/01/06 08:34:38;;;;;;;18.67;12.80;;;2.70;99.90;;;;;;4998394;28;20226;-79
2021/01/06 08:37:13;;;;;;;17.83;12.70;;;2.70;99.90;;;;;;5016194;28;20199;-83
2021/01/06 08:39:50;;;;;;;18.53;13.50;;;2.60;99.90;;;;;;5015671;28;20205;-81
2021/01/06 08:42:26;;;;;;;20.63;13.47;;;2.60;99.90;;;;;;5022055;28;20181;-80
2021/01/06 08:45:00;;;;;;;18.90;12.27;;;2.60;99.90;;;;;;5022318;28;20159;-81
2021/01/06 08:47:36;;;;;;;16.87;11.87;;;2.60;99.90;;;;;;5036102;28;20187;-87
2021/01/06 08:50:21;;;;;;;19.03;13.03;;;2.70;99.90;;;;;;5006411;28;20175;-83
2021/01/06 08:52:58;;;;;;;23.03;12.50;;;2.60;99.90;;;;;;5053766;28;20184;-80
2021/01/06 08:55:33;;;;;;;19.50;12.83;;;2.70;99.90;;;;;;5020092;28;20649;-85
2021/01/06 08:57:59;;;;;;;15.30;11.77;;;2.70;99.90;;;;;;5019988;28;20183;-86
2021/01/06 09:00:32;;;;;;;19.00;12.10;;;2.80;99.90;;;;;;5038029;28;20181;-86
2021/01/06 09:03:02;;;;;;;18.93;12.30;;;2.80;99.90;;;;;;5004213;28;20262;-80
2021/01/06 09:05:45;;;;;;;20.00;13.03;;;2.80;99.90;;;;;;5020103;28;20635;-81
2021/01/06 09:08:16;;;;;;;17.70;12.37;;;2.80;99.90;;;;;;5036931;28;20285;-82
2021/01/06 09:10:47;;;;;;;16.37;11.57;;;2.80;99.90;;;;;;5004396;28;20171;-84
2021/01/06 09:13:17;;;;;;;18.53;12.63;;;2.80;99.90;;;;;;5004786;28;20201;-82
2021/01/06 09:15:50;;;;;;;15.60;11.07;;;2.90;99.90;;;;;;5020853;28;20198;-83
2021/01/06 09:18:25;;;;;;;17.10;11.43;;;2.90;99.90;;;;;;5021016;28;20297;-83
2021/01/06 09:21:03;;;;;;;20.10;11.73;;;2.90;99.90;;;;;;5006443;28;20183;-83
2021/01/06 09:23:29;;;;;;;15.70;11.13;;;2.80;99.90;;;;;;5039591;28;20236;-82
2021/01/06 09:25:54;;;;;;;15.67;10.20;;;2.90;99.90;;;;;;5037234;28;20205;-84
2021/01/06 09:28:20;;;;;;;16.13;11.73;;;2.90;99.90;;;;;;5037512;28;20183;-81
2021/01/06 09:30:46;;;;;;;15.60;11.07;;;2.90;99.90;;;;;;5037554;28;20211;-84
2021/01/06 09:33:41;;;;;;;16.10;11.73;;;2.90;99.90;;;;;;5036632;28;20190;-86
2021/01/06 09:36:07;;;;;;;17.43;10.47;;;2.90;99.90;;;;;;5029328;28;20230;-85
2021/01/06 09:38:49;;;;;;;16.67;11.50;;;2.90;99.90;;;;;;5003721;28;20199;-82
2021/01/06 09:41:24;;;;;;;17.87;11.77;;;2.80;99.90;;;;;;5001344;28;20191;-80
2021/01/06 09:43:55;;;;;;;17.77;11.47;;;2.90;99.90;;;;;;5009117;28;20179;-84
2021/01/06 09:46:31;;;;;;;18.13;11.63;;;2.90;99.90;;;;;;5009930;28;20222;-78
2021/01/06 09:48:58;;;;;;;17.30;11.73;;;3.00;99.90;;;;;;5016849;28;20614;-79
2021/01/06 09:51:24;;;;;;;15.30;11.17;;;2.90;99.90;;;;;;4999817;28;20194;-79
2021/01/06 09:53:52;;;;;;;18.60;12.00;;;2.90;99.90;;;;;;5017550;28;20190;-78
2021/01/06 09:56:18;;;;;;;16.70;11.37;;;2.90;99.90;;;;;;5011425;28;20203;-80
2021/01/06 09:58:43;;;;;;;16.03;11.10;;;2.90;99.90;;;;;;5011487;28;20234;-80
2021/01/06 10:01:20;;;;;;;16.17;10.83;;;2.90;99.90;;;;;;5029852;28;20272;-78
2021/01/06 10:03:47;;;;;;;17.60;10.37;;;2.80;99.90;;;;;;5022658;28;20545;-77
2021/01/06 10:06:15;;;;;;;15.17;10.67;;;2.80;99.90;;;;;;4995242;28;20202;-79
2021/01/06 10:08:40;;;;;;;14.67;9.80;;;2.80;99.90;;;;;;5012458;28;20179;-80
2021/01/06 10:11:28;;;;;;;12.07;9.57;;;2.80;99.90;;;;;;5013678;28;20175;-79
2021/01/06 10:14:15;;;;;;;13.80;9.77;;;2.90;99.90;;;;;;5018703;28;20195;-76
2021/01/06 10:16:45;;;;;;;12.73;8.80;;;2.90;99.90;;;;;;5013282;28;20222;-80
2021/01/06 10:19:37;;;;;;;13.67;9.67;;;3.00;99.90;;;;;;4987102;28;20626;-78
2021/01/06 10:22:22;;;;;;;13.87;9.63;;;3.00;99.90;;;;;;5009882;28;20191;-83
2021/01/06 10:25:07;;;;;;;17.43;10.23;;;3.00;99.90;;;;;;5025628;28;20325;-80
2021/01/06 10:27:52;;;;;;;16.33;10.33;;;3.00;99.90;;;;;;5024918;28;20214;-82
2021/01/06 10:30:18;;;;;;;16.23;10.63;;;3.00;99.90;;;;;;5023488;28;20201;-78
2021/01/06 10:32:45;;;;;;;13.87;9.87;;;3.00;99.90;;;;;;5026339;28;20564;-82
2021/01/06 10:35:36;;;;;;;12.97;9.77;;;3.10;99.90;;;;;;5019255;28;20175;-79
2021/01/06 10:38:12;;;;;;;15.77;10.07;;;3.10;99.90;;;;;;5022533;28;20184;-82
2021/01/06 10:40:37;;;;;;;13.73;9.60;;;3.20;99.90;;;;;;5026993;28;20179;-80
2021/01/06 10:43:38;;;;;;;14.57;9.60;;;3.20;99.90;;;;;;5037179;28;20267;-79
2021/01/06 10:46:35;;;;;;;14.03;9.90;;;3.20;99.90;;;;;;5020741;28;20201;-84
2021/01/06 10:49:02;;;;;;;15.67;9.67;;;3.10;99.90;;;;;;5028352;28;20266;-82
2021/01/06 10:51:59;;;;;;;13.63;9.43;;;3.10;99.90;;;;;;4995586;28;20171;-83
2021/01/06 10:54:29;;;;;;;14.60;10.67;;;3.10;99.90;;;;;;5013292;28;20168;-78
2021/01/06 10:56:56;;;;;;;15.20;10.17;;;3.10;99.90;;;;;;5011374;28;20314;-80
2021/01/06 10:59:22;;;;;;;13.40;10.07;;;3.10;99.90;;;;;;4995580;28;20287;-78
2021/01/06 11:02:06;;;;;;;14.57;9.70;;;3.00;99.90;;;;;;5028827;28;20203;-82
2021/01/06 11:04:39;;;;;;;15.00;9.87;;;3.00;99.90;;;;;;5002750;28;20516;-78
2021/01/06 11:07:31;;;;;;;13.00;9.17;;;3.00;99.90;;;;;;4997259;28;20195;-79
2021/01/06 11:10:00;;;;;;;14.47;10.10;;;3.00;99.90;;;;;;5007741;28;20631;-78
2021/01/06 11:12:38;;;;;;;16.43;10.03;;;2.90;99.90;;;;;;5016297;28;20175;-81
2021/01/06 11:15:09;;;;;;;14.33;9.77;;;2.90;99.90;;;;;;5014962;28;20350;-78
2021/01/06 11:17:36;;;;;;;15.87;10.50;;;2.90;99.90;;;;;;5014263;28;20222;-79
2021/01/06 11:20:31;;;;;;;15.53;10.63;;;2.90;99.90;;;;;;5009509;28;20191;-80
2021/01/06 11:23:26;;;;;;;15.90;10.30;;;3.00;99.90;;;;;;5035801;28;20175;-82
2021/01/06 11:25:54;;;;;;;15.13;10.10;;;2.90;99.90;;;;;;5030124;28;20571;-80
2021/01/06 11:29:01;;;;;;;16.20;9.93;;;3.00;99.90;;;;;;5011132;28;20236;-79
2021/01/06 11:31:30;;;;;;;13.97;10.07;;;3.10;99.90;;;;;;5033467;28;20187;-76
2021/01/06 11:34:11;;;;;;;15.57;10.53;;;3.10;99.90;;;;;;5027236;28;20179;-82
2021/01/06 11:36:45;;;;;;;14.67;10.30;;;3.10;99.90;;;;;;5036951;28;20205;-79
2021/01/06 11:39:37;;;;;;;11.63;9.07;;;3.10;99.90;;;;;;5035336;28;20199;-80
2021/01/06 11:42:18;;;;;;;11.73;8.77;;;3.10;99.90;;;;;;5033145;28;20195;-82
2021/01/06 11:44:47;;;;;;;13.73;9.60;;;3.10;99.90;;;;;;5036392;28;20254;-80
2021/01/06 11:47:28;;;;;;;13.63;9.57;;;3.00;99.90;;;;;;5052540;28;20255;-81
2021/01/06 11:50:17;;;;;;;13.17;9.07;;;3.10;99.90;;;;;;5051986;28;20190;-79
2021/01/06 11:52:48;;;;;;;11.50;9.00;;;3.10;99.90;;;;;;5036457;28;20183;-80
2021/01/06 11:55:16;;;;;;;12.03;9.00;;;3.10;99.90;;;;;;5018355;28;20183;-81
2021/01/06 11:58:00;;;;;;;12.20;8.10;;;3.10;99.90;;;;;;5052285;28;20274;-82
2021/01/06 12:00:41;;;;;;;10.90;8.03;;;3.20;99.90;;;;;;5035589;28;20203;-79
2021/01/06 12:03:06;;;;;;;11.83;8.17;;;3.20;99.90;;;;;;5033442;28;20168;-79
2021/01/06 12:05:52;;;;;;;13.67;8.93;;;3.10;99.90;;;;;;5049439;28;20182;-79
2021/01/06 12:08:29;;;;;;;10.80;7.67;;;3.10;99.90;;;;;;5033509;28;20218;-79
2021/01/06 12:11:16;;;;;;;12.53;8.80;;;3.10;99.90;;;;;;5018583;28;20175;-79
2021/01/06 12:14:22;;;;;;;10.43;7.87;;;3.10;99.90;;;;;;5014523;28;20210;-79
2021/01/06 12:17:16;;;;;;;12.50;8.60;;;3.30;99.90;;;;;;5015459;28;20226;-79
2021/01/06 12:19:58;;;;;;;12.43;8.80;;;3.20;99.90;;;;;;4999664;28;20210;-79
2021/01/06 12:22:24;;;;;;;14.23;10.33;;;3.10;99.90;;;;;;5020076;28;20199;-80
2021/01/06 12:25:00;;;;;;;13.13;9.67;;;3.10;99.90;;;;;;5016581;28;20191;-79
2021/01/06 12:27:52;;;;;;;12.23;9.17;;;3.20;99.90;;;;;;5033009;28;20202;-76
2021/01/06 12:30:17;;;;;;;30.30;18.13;;;3.20;99.90;;;;;;5017471;28;20186;-78
2021/01/06 12:33:01;;;;;;;14.17;10.53;;;3.20;99.90;;;;;;5037700;28;20241;-80
2021/01/06 12:35:34;;;;;;;11.67;9.33;;;3.10;99.90;;;;;;5018498;28;20182;-79
2021/01/06 12:38:18;;;;;;;13.47;9.27;;;3.20;99.90;;;;;;5017168;28;20653;-77
2021/01/06 12:41:11;;;;;;;11.20;8.43;;;3.20;99.90;;;;;;5033909;28;20191;-79
2021/01/06 12:43:46;;;;;;;12.10;8.67;;;3.10;99.90;;;;;;5016527;28;20199;-79
2021/01/06 12:46:29;;;;;;;10.87;8.70;;;3.00;99.90;;;;;;5048845;28;20687;-77
2021/01/06 12:49:13;;;;;;;11.73;8.40;;;3.00;99.90;;;;;;5016547;28;20179;-79
2021/01/06 12:52:04;;;;;;;13.27;9.67;;;3.00;99.90;;;;;;5018240;28;20171;-79
2021/01/06 12:54:40;;;;;;;11.93;8.80;;;3.00;99.90;;;;;;5032058;28;20277;-79
2021/01/06 12:57:08;;;;;;;9.83;8.13;;;3.10;99.90;;;;;;5032520;28;20277;-77
2021/01/06 12:59:51;;;;;;;9.97;8.23;;;3.10;99.90;;;;;;5031957;28;20198;-77
2021/01/06 13:02:23;;;;;;;10.20;8.03;;;3.00;99.90;;;;;;5016477;28;20187;-78
2021/01/06 13:04:49;;;;;;;10.27;8.00;;;3.00;99.90;;;;;;5051201;28;20741;-80
2021/01/06 13:07:24;;;;;;;10.67;8.30;;;3.00;99.90;;;;;;5001054;28;20215;-80
2021/01/06 13:09:50;;;;;;;11.00;8.27;;;3.00;99.90;;;;;;5011082;28;20178;-80
2021/01/06 13:12:37;;;;;;;12.43;8.47;;;3.00;99.90;;;;;;5054690;28;20702;-84
2021/01/06 13:15:23;;;;;;;14.80;8.73;;;3.10;99.90;;;;;;5053943;28;20631;-81